首页
METAR-TAF:

METAR-TAF

机场 :

雪城汉考克国际机场

锡拉丘兹, 紐約州, 美国

纬度: 43-06-33N, 经度: 076-06-12W, 海拔: 128米

当前天气观测

该预报发布于15分钟前的07:54 UTC
风速6节,风向南转西南
温度 11°C
湿度 76%
气压 1001 hPa
能見度: 16.1公里
散云层高于4100英尺
阴天层高于5500英尺

METAR: KSYR 100754Z 20006KT 10SM SCT041 OVC055 11/07 A2955 RMK AO2 RAE46 CIG 041 NW SLP006 P0000 T01060072

时间: 03:09 (08:09 UTC)

预报

该预报发布于2小时和32分钟前的05:37 UTC
预报有效从10日的 06点(UTC)到 11日的 06点(UTC)
风速8节,风向南转西南
能見度: 10公里
阴天层高于2500英尺
短暂存在
从 10日的 06点(UTC)到 10日的 09点(UTC)
能見度: 6.4公里
小雨, 轻雾
从 10日的 1200点(UTC)
风速8节,风向南转西南
能見度: 10公里
阴天层高于2500英尺
从 10日的 1600点(UTC)
风速11节,风向西
能見度: 10公里
阴天层高于2000英尺
小雨, 雪
从 10日的 2200点(UTC)
风速9节,风向西
能見度: 6.4公里
阴天层高于2500英尺
小阵雪

TAF: KSYR 100537Z 1006/1106 21008KT P6SM OVC025 WS020/24035KT TEMPO 1006/1009 4SM -RA BR FM101200 21008KT P6SM OVC025 FM101600 27011KT P6SM -RASN OVC020 FM102200 28009KT 4SM -SHSN OVC025

超过4000个机场的气象观测和天气预报(METAR&TAF报告)。

可查询的气象台以黄色和红色小点在地图上表示。

将鼠标移到小点上方,可查看气象台名称。

然后点击查看天气观测和预报。

如需切换地图:点击带黑十字的绿色按钮放大地图;点击带横线的绿色按钮缩小地图;或者点击绿色箭头查看邻近地区的地图。


METAR-TAF: